createdAt,value
2024-05-09T00:01:39.247Z,70.76
2024-05-09T00:03:41.587Z,69.98
2024-05-09T00:05:46.702Z,70.73
2024-05-09T00:07:48.618Z,70.78
2024-05-09T00:09:53.074Z,70.15
2024-05-09T00:11:54.968Z,70.91
2024-05-09T00:13:57.072Z,69.57
2024-05-09T00:15:59.820Z,69.98
2024-05-09T00:18:02.085Z,70.80
2024-05-09T00:20:11.067Z,70.44
2024-05-09T00:22:16.399Z,70.34
2024-05-09T00:24:18.387Z,71.13
2024-05-09T00:26:24.010Z,71.14
2024-05-09T00:28:25.769Z,71.35
2024-05-09T00:30:33.748Z,69.14
2024-05-09T00:32:38.202Z,69.69
2024-05-09T00:34:40.275Z,69.95
2024-05-09T00:36:42.153Z,68.18
2024-05-09T00:38:45.871Z,69.30
2024-05-09T00:40:47.881Z,67.35
2024-05-09T00:42:52.403Z,66.29
2024-05-09T00:44:54.166Z,66.06
2024-05-09T00:46:56.281Z,65.94
2024-05-09T00:48:58.242Z,65.99
2024-05-09T00:51:00.845Z,65.70
2024-05-09T00:53:03.044Z,66.29
2024-05-09T00:55:06.574Z,67.81
2024-05-09T00:57:08.511Z,67.03
2024-05-09T00:59:13.109Z,68.23
2024-05-09T01:01:17.967Z,68.97
2024-05-09T01:03:20.381Z,68.72
2024-05-09T01:05:22.538Z,69.74
2024-05-09T01:07:24.812Z,69.00
2024-05-09T01:09:26.795Z,70.30
2024-05-09T01:11:33.776Z,70.35
2024-05-09T01:13:35.743Z,70.36
2024-05-09T01:15:40.196Z,70.24
2024-05-09T01:17:42.580Z,70.97
2024-05-09T01:19:44.642Z,70.84
2024-05-09T01:21:46.556Z,71.91
2024-05-09T01:23:51.051Z,71.53
2024-05-09T01:25:52.859Z,72.45
2024-05-09T01:27:54.543Z,71.36
2024-05-09T01:29:56.421Z,71.72
2024-05-09T01:31:58.301Z,70.30
2024-05-09T01:34:00.435Z,71.24
2024-05-09T01:36:02.492Z,71.99
2024-05-09T01:38:04.846Z,71.77
2024-05-09T01:40:14.907Z,72.06
2024-05-09T01:42:20.076Z,72.30
2024-05-09T01:44:21.884Z,72.47
2024-05-09T01:46:23.820Z,72.91
2024-05-09T01:48:25.890Z,73.42
2024-05-09T01:50:38.134Z,73.26
2024-05-09T01:52:43.094Z,73.72
2024-05-09T01:54:44.941Z,72.83
2024-05-09T01:56:49.403Z,73.48
2024-05-09T01:58:51.275Z,73.28
2024-05-09T02:00:53.179Z,73.32
2024-05-09T02:02:55.055Z,72.66
2024-05-09T02:04:57.104Z,73.16
2024-05-09T02:06:59.026Z,72.55
2024-05-09T02:09:00.787Z,73.01
2024-05-09T02:11:02.868Z,72.58
2024-05-09T02:13:08.543Z,72.48
2024-05-09T02:15:13.218Z,73.08
2024-05-09T02:17:18.226Z,73.01
2024-05-09T02:19:20.183Z,73.41
2024-05-09T02:21:22.062Z,73.51
2024-05-09T02:23:23.791Z,74.42
2024-05-09T02:25:25.578Z,73.03
2024-05-09T02:27:28.956Z,73.27
2024-05-09T02:29:33.449Z,72.75
2024-05-09T02:31:35.348Z,73.08
2024-05-09T02:33:37.435Z,73.30
2024-05-09T02:35:39.804Z,71.12
2024-05-09T02:37:42.059Z,72.95
2024-05-09T02:39:43.855Z,72.03
2024-05-09T02:41:45.683Z,71.35
2024-05-09T02:43:47.509Z,72.15
2024-05-09T02:45:51.989Z,72.36
2024-05-09T02:47:54.062Z,72.75
2024-05-09T02:49:56.086Z,72.57
2024-05-09T02:51:57.979Z,72.09
2024-05-09T02:54:02.818Z,72.23
2024-05-09T02:56:05.614Z,73.17
2024-05-09T02:58:07.643Z,73.62
2024-05-09T03:00:18.542Z,73.46
2024-05-09T03:02:26.861Z,73.74
2024-05-09T03:04:28.755Z,73.77
2024-05-09T03:06:30.618Z,74.62
2024-05-09T03:08:32.657Z,74.22
2024-05-09T03:10:36.818Z,73.76
2024-05-09T03:12:40.608Z,72.38
2024-05-09T03:14:42.622Z,71.79
2024-05-09T03:16:44.591Z,72.10
2024-05-09T03:18:51.734Z,71.70
2024-05-09T03:20:53.929Z,71.16
2024-05-09T03:22:57.003Z,71.19
2024-05-09T03:24:59.052Z,70.01
2024-05-09T03:27:01.008Z,70.78
2024-05-09T03:29:03.121Z,71.11
2024-05-09T03:31:06.280Z,71.79
2024-05-09T03:33:10.423Z,71.60
2024-05-09T03:35:15.121Z,71.53
2024-05-09T03:37:16.930Z,71.71
2024-05-09T03:39:18.773Z,71.75
2024-05-09T03:41:20.443Z,72.25
2024-05-09T03:43:22.375Z,71.93
2024-05-09T03:45:25.600Z,72.81
2024-05-09T03:47:27.562Z,74.00
2024-05-09T03:49:29.552Z,72.49
2024-05-09T03:51:34.120Z,72.04
2024-05-09T03:53:36.039Z,72.67
2024-05-09T03:55:38.001Z,72.84
2024-05-09T03:57:39.779Z,72.27
2024-05-09T03:59:41.631Z,72.21
2024-05-09T04:01:43.558Z,72.15
2024-05-09T04:03:45.636Z,72.21
2024-05-09T04:05:47.453Z,72.84
2024-05-09T04:07:52.134Z,71.90
2024-05-09T04:09:53.915Z,72.05
2024-05-09T04:11:55.934Z,72.17
2024-05-09T04:13:57.918Z,72.50
2024-05-09T04:15:59.731Z,71.29
2024-05-09T04:18:02.195Z,71.86
2024-05-09T04:20:08.333Z,71.25
2024-05-09T04:22:10.428Z,71.46
2024-05-09T04:24:14.839Z,71.55
2024-05-09T04:26:17.480Z,72.03
2024-05-09T04:28:19.471Z,72.42
2024-05-09T04:30:30.230Z,72.31
2024-05-09T04:32:38.358Z,72.01
2024-05-09T04:34:40.184Z,71.64
2024-05-09T04:36:44.339Z,71.60
2024-05-09T04:38:46.717Z,72.17
2024-05-09T04:40:51.198Z,72.50
2024-05-09T04:42:53.035Z,72.45
2024-05-09T04:44:58.335Z,72.06
2024-05-09T04:47:00.683Z,72.71
2024-05-09T04:49:02.672Z,71.71
2024-05-09T04:51:07.245Z,71.12
2024-05-09T04:53:10.647Z,71.62
2024-05-09T04:55:13.595Z,71.69
2024-05-09T04:57:18.185Z,72.06
2024-05-09T04:59:20.068Z,72.10
2024-05-09T05:01:22.085Z,72.41
2024-05-09T05:03:24.016Z,72.24
2024-05-09T05:05:26.075Z,72.02
2024-05-09T05:07:27.939Z,73.37
2024-05-09T05:09:30.137Z,73.51
2024-05-09T05:11:32.258Z,73.90
2024-05-09T05:13:39.447Z,73.18
2024-05-09T05:15:43.397Z,74.37
2024-05-09T05:17:45.393Z,74.26
2024-05-09T05:19:47.527Z,72.87
2024-05-09T05:21:49.526Z,72.40
2024-05-09T05:23:51.503Z,72.02
2024-05-09T05:25:54.186Z,72.03
2024-05-09T05:27:56.313Z,72.67
2024-05-09T05:30:00.756Z,72.06
2024-05-09T05:32:02.678Z,72.50
2024-05-09T05:34:04.776Z,72.92
2024-05-09T05:36:07.588Z,71.94
2024-05-09T05:38:10.688Z,71.23
2024-05-09T05:40:20.671Z,71.39
2024-05-09T05:42:26.795Z,71.32
2024-05-09T05:44:28.713Z,71.52
2024-05-09T05:46:33.120Z,70.96
2024-05-09T05:48:35.358Z,70.89
2024-05-09T05:50:38.474Z,71.16
2024-05-09T05:52:40.707Z,69.85
2024-05-09T05:54:42.521Z,69.69
2024-05-09T05:56:44.432Z,69.48
2024-05-09T05:58:46.323Z,69.70
2024-05-09T06:00:48.416Z,70.56
2024-05-09T06:02:53.272Z,69.31
2024-05-09T06:04:55.245Z,68.53
2024-05-09T06:06:57.140Z,67.91
2024-05-09T06:08:58.941Z,68.09
2024-05-09T06:11:00.926Z,67.41
2024-05-09T06:13:02.819Z,68.12
2024-05-09T06:15:05.797Z,68.04
2024-05-09T06:17:07.786Z,68.35
2024-05-09T06:19:12.425Z,68.24
2024-05-09T06:21:16.787Z,69.13
2024-05-09T06:23:18.717Z,67.26
2024-05-09T06:25:20.910Z,65.86
2024-05-09T06:27:22.760Z,66.39
2024-05-09T06:29:24.560Z,67.61
2024-05-09T06:31:26.363Z,68.07
2024-05-09T06:33:28.514Z,67.72
2024-05-09T06:35:33.731Z,66.23
2024-05-09T06:37:36.365Z,65.26
2024-05-09T06:39:38.111Z,65.83
2024-05-09T06:41:40.012Z,65.40
2024-05-09T06:43:42.749Z,66.93
2024-05-09T06:45:44.539Z,65.53
2024-05-09T06:47:46.605Z,64.64
2024-05-09T06:49:48.716Z,63.23
2024-05-09T06:51:53.443Z,64.54
2024-05-09T06:53:55.322Z,64.83
2024-05-09T06:55:57.119Z,63.21
2024-05-09T06:57:58.878Z,65.18
2024-05-09T07:00:00.832Z,64.71
2024-05-09T07:02:03.042Z,62.10
2024-05-09T07:04:05.258Z,62.58
2024-05-09T07:06:07.109Z,64.83
2024-05-09T07:08:11.877Z,64.31
2024-05-09T07:10:21.702Z,64.91
2024-05-09T07:12:28.084Z,65.73
2024-05-09T07:14:30.331Z,63.14
2024-05-09T07:16:32.146Z,62.27
2024-05-09T07:18:34.040Z,61.17
2024-05-09T07:20:35.993Z,62.67
2024-05-09T07:22:37.781Z,63.29
2024-05-09T07:24:42.292Z,60.74
2024-05-09T07:26:44.219Z,62.64
2024-05-09T07:28:46.025Z,65.63
2024-05-09T07:30:48.059Z,61.55
2024-05-09T07:32:50.252Z,61.25
2024-05-09T07:34:52.647Z,59.85
2024-05-09T07:36:54.532Z,57.48
2024-05-09T07:38:56.266Z,59.62
2024-05-09T07:41:00.897Z,59.42
2024-05-09T07:43:03.050Z,66.12
2024-05-09T07:45:21.561Z,66.91
2024-05-09T07:53:14.372Z,55.06
2024-05-09T07:54:01.910Z,57.72
2024-05-09T07:56:08.642Z,65.31
2024-05-09T07:58:11.070Z,67.06
2024-05-09T08:00:17.280Z,57.98
2024-05-09T08:02:22.077Z,56.12
2024-05-09T08:04:26.582Z,65.29
2024-05-09T08:06:28.746Z,67.73
2024-05-09T08:08:30.517Z,63.53
2024-05-09T08:10:32.434Z,66.09
2024-05-09T08:12:36.949Z,64.92
2024-05-09T08:14:39.071Z,63.55
2024-05-09T08:16:40.931Z,63.50
2024-05-09T08:18:42.837Z,61.04
2024-05-09T08:20:48.602Z,60.12
2024-05-09T08:22:50.443Z,62.85
2024-05-09T08:24:52.212Z,44.36
2024-05-09T08:26:54.233Z,46.31
2024-05-09T08:28:58.709Z,45.14
2024-05-09T08:31:03.178Z,44.00
2024-05-09T08:33:07.885Z,51.95
2024-05-09T08:35:10.102Z,44.45
2024-05-09T08:37:19.418Z,48.25
2024-05-09T08:39:23.916Z,57.53
2024-05-09T08:41:25.918Z,46.26
2024-05-09T08:43:29.564Z,62.94
2024-05-09T08:45:35.577Z,44.17
2024-05-09T08:47:37.584Z,47.73
2024-05-09T08:49:41.643Z,54.00
2024-05-09T08:51:44.252Z,50.39
2024-05-09T08:53:46.462Z,55.95
2024-05-09T08:55:51.063Z,51.58
2024-05-09T08:57:53.652Z,44.26
2024-05-09T08:59:59.347Z,42.23
2024-05-09T09:02:06.055Z,60.74
2024-05-09T09:04:10.187Z,43.32
2024-05-09T09:06:12.794Z,58.73
2024-05-09T09:08:15.830Z,60.28
2024-05-09T09:10:25.416Z,43.76
2024-05-09T09:12:33.560Z,42.75
2024-05-09T09:14:35.376Z,46.62
2024-05-09T09:16:37.737Z,48.48
2024-05-09T09:18:44.330Z,41.73
2024-05-09T09:20:46.448Z,44.36
2024-05-09T09:22:48.573Z,58.46
2024-05-09T09:24:50.591Z,46.93
2024-05-09T09:26:52.541Z,42.34
2024-05-09T09:29:00.051Z,38.38
2024-05-09T09:31:02.583Z,36.62
2024-05-09T09:33:05.218Z,37.54
2024-05-09T09:35:10.138Z,45.98
2024-05-09T09:37:11.959Z,55.80
2024-05-09T09:39:18.469Z,55.98
2024-05-09T09:41:26.424Z,48.36
2024-05-09T09:43:28.552Z,55.39
2024-05-09T09:45:32.358Z,48.18
2024-05-09T09:47:37.056Z,42.67
2024-05-09T09:49:39.724Z,52.88
2024-05-09T09:51:45.296Z,46.00
2024-05-09T09:53:49.062Z,52.12
2024-05-09T09:55:52.110Z,53.54
2024-05-09T09:57:56.184Z,52.29
2024-05-09T10:00:00.365Z,45.81
2024-05-09T10:02:02.369Z,40.36
2024-05-09T10:04:05.395Z,46.64
2024-05-09T10:06:08.546Z,39.37
2024-05-09T10:08:13.837Z,35.30
2024-05-09T10:10:29.881Z,39.02
2024-05-09T10:12:34.841Z,38.23
2024-05-09T10:14:41.015Z,43.41
2024-05-09T10:16:45.818Z,35.24
2024-05-09T10:18:47.975Z,35.87
2024-05-09T10:20:50.355Z,35.40
2024-05-09T10:22:52.154Z,40.01
2024-05-09T10:25:05.354Z,43.81
2024-05-09T10:27:07.628Z,45.64
2024-05-09T10:29:12.817Z,51.15
2024-05-09T10:31:16.467Z,43.40
2024-05-09T10:33:20.256Z,44.58
2024-05-09T10:35:22.741Z,35.15
2024-05-09T10:37:25.745Z,34.71
2024-05-09T10:39:34.722Z,36.94
2024-05-09T10:41:40.165Z,37.03
2024-05-09T10:43:42.367Z,36.83
2024-05-09T10:45:44.559Z,42.10
2024-05-09T10:47:46.553Z,49.74
2024-05-09T10:49:49.569Z,49.37
2024-05-09T10:51:52.589Z,46.71
2024-05-09T10:53:54.611Z,35.92
2024-05-09T10:55:56.786Z,38.29
2024-05-09T10:58:01.507Z,35.16
2024-05-09T11:00:06.196Z,35.43
2024-05-09T11:02:09.368Z,36.43
2024-05-09T11:04:11.550Z,47.31
2024-05-09T11:06:15.030Z,35.35
2024-05-09T11:08:17.464Z,37.96
2024-05-09T11:10:27.379Z,39.80
2024-05-09T11:12:33.913Z,44.14
2024-05-09T11:14:38.689Z,47.29
2024-05-09T11:16:40.689Z,49.52
2024-05-09T11:18:42.642Z,38.49
2024-05-09T11:20:44.678Z,49.56
2024-05-09T11:22:46.629Z,40.89
2024-05-09T11:24:49.886Z,35.69
2024-05-09T11:26:51.815Z,47.05
2024-05-09T11:28:53.718Z,40.73
2024-05-09T11:31:05.140Z,41.31
2024-05-09T11:33:10.656Z,35.73
2024-05-09T11:35:12.824Z,34.98
2024-05-09T11:37:14.814Z,39.92
2024-05-09T11:39:16.864Z,43.38
2024-05-09T11:41:19.568Z,44.01
2024-05-09T11:43:21.617Z,34.66
2024-05-09T11:45:23.451Z,40.68
2024-05-09T11:47:28.278Z,35.94
2024-05-09T11:49:30.777Z,42.66
2024-05-09T11:51:32.733Z,36.95
2024-05-09T11:53:34.675Z,37.44
2024-05-09T11:55:36.679Z,33.06
2024-05-09T11:57:39.155Z,36.45
2024-05-09T11:59:41.398Z,33.22
2024-05-09T12:01:43.556Z,33.84
2024-05-09T12:03:48.392Z,37.11
2024-05-09T12:05:50.748Z,41.45
2024-05-09T12:07:52.704Z,39.22
2024-05-09T12:09:54.614Z,42.75
2024-05-09T12:11:56.516Z,39.54
2024-05-09T12:13:58.342Z,41.69
2024-05-09T12:16:00.964Z,39.24
2024-05-09T12:18:04.212Z,35.86
2024-05-09T12:20:17.507Z,40.56
2024-05-09T12:22:27.341Z,45.01
2024-05-09T12:24:29.406Z,43.82
2024-05-09T12:26:31.461Z,44.07
2024-05-09T12:28:33.436Z,43.23
2024-05-09T12:30:38.905Z,39.15
2024-05-09T12:32:42.496Z,38.95
2024-05-09T12:34:44.383Z,39.39
2024-05-09T12:36:49.068Z,37.12
2024-05-09T12:38:51.201Z,35.65
2024-05-09T12:40:53.222Z,29.82
2024-05-09T12:42:55.302Z,37.48
2024-05-09T12:44:57.226Z,29.05
2024-05-09T12:46:59.101Z,34.39
2024-05-09T12:49:01.510Z,29.46
2024-05-09T12:51:03.956Z,31.88
2024-05-09T12:53:08.549Z,28.28
2024-05-09T12:55:12.047Z,35.56
2024-05-09T12:57:13.953Z,34.39
2024-05-09T12:59:15.901Z,34.54
2024-05-09T13:01:17.891Z,30.61
2024-05-09T13:03:20.364Z,33.22
2024-05-09T13:05:22.559Z,32.47
2024-05-09T13:07:25.388Z,31.96
2024-05-09T13:09:29.994Z,26.41
2024-05-09T13:11:32.110Z,24.22
2024-05-09T13:13:34.288Z,30.66
2024-05-09T13:15:36.409Z,32.21
2024-05-09T13:17:38.542Z,30.14
2024-05-09T13:19:40.624Z,29.37
2024-05-09T13:21:42.561Z,24.66
2024-05-09T13:23:44.850Z,27.76
2024-05-09T13:25:49.414Z,29.81
2024-05-09T13:27:51.472Z,27.16
2024-05-09T13:29:53.345Z,31.48
2024-05-09T13:31:55.254Z,30.74
2024-05-09T13:33:57.154Z,24.78
2024-05-09T13:35:59.306Z,23.15
2024-05-09T13:38:01.635Z,22.54
2024-05-09T13:40:06.763Z,22.07
2024-05-09T13:42:11.805Z,24.11
2024-05-09T13:44:13.658Z,24.21
2024-05-09T13:46:15.504Z,28.81
2024-05-09T13:48:17.895Z,26.22
2024-05-09T13:50:28.129Z,26.34
2024-05-09T13:52:35.697Z,28.58
2024-05-09T13:54:37.732Z,29.19
2024-05-09T13:56:41.345Z,29.52
2024-05-09T13:58:46.153Z,29.34
2024-05-09T14:00:49.355Z,29.07
2024-05-09T14:02:51.762Z,29.10
2024-05-09T14:04:54.090Z,29.00
2024-05-09T14:06:56.122Z,30.77
2024-05-09T14:08:58.019Z,29.02
2024-05-09T14:11:00.107Z,31.47
2024-05-09T14:13:02.232Z,33.52
2024-05-09T14:15:07.554Z,28.98
2024-05-09T14:17:09.672Z,31.98
2024-05-09T14:19:11.927Z,32.03
2024-05-09T14:21:13.809Z,31.59
2024-05-09T14:23:17.768Z,33.00
2024-05-09T14:25:19.655Z,30.96
2024-05-09T14:27:21.604Z,31.95
2024-05-09T14:29:23.677Z,32.24
2024-05-09T14:31:28.166Z,28.17
2024-05-09T14:33:30.309Z,29.41
2024-05-09T14:35:32.320Z,27.26
2024-05-09T14:37:36.333Z,29.44
2024-05-09T14:39:39.046Z,27.18
2024-05-09T14:41:41.079Z,28.16
2024-05-09T14:43:43.333Z,27.34
2024-05-09T14:45:46.016Z,28.65
2024-05-09T14:47:50.891Z,27.06
2024-05-09T14:49:52.880Z,27.82
2024-05-09T14:51:55.028Z,27.12
2024-05-09T14:53:56.790Z,26.93
2024-05-09T14:55:58.656Z,29.14
2024-05-09T14:58:00.587Z,28.51
2024-05-09T15:00:03.765Z,28.68
2024-05-09T15:02:07.158Z,27.21
2024-05-09T15:04:12.036Z,28.46
2024-05-09T15:06:14.601Z,28.39
2024-05-09T15:08:17.803Z,28.20
2024-05-09T15:10:27.023Z,28.84
2024-05-09T15:12:35.853Z,30.08
2024-05-09T15:14:37.719Z,30.11
2024-05-09T15:16:39.501Z,28.98
2024-05-09T15:18:43.760Z,29.32
2024-05-09T15:20:48.951Z,29.15
2024-05-09T15:22:50.995Z,29.87
2024-05-09T15:24:53.051Z,31.31
2024-05-09T15:26:55.082Z,29.41
2024-05-09T15:28:57.007Z,31.99
2024-05-09T15:30:59.038Z,34.62
2024-05-09T15:33:01.540Z,28.55
2024-05-09T15:35:04.448Z,28.06
2024-05-09T15:37:09.165Z,28.46
2024-05-09T15:39:11.322Z,28.87
2024-05-09T15:41:13.715Z,29.28
2024-05-09T15:43:15.783Z,29.61
2024-05-09T15:45:17.716Z,29.35
2024-05-09T15:47:20.039Z,35.34
2024-05-09T15:49:22.065Z,29.92
2024-05-09T15:51:24.017Z,34.14
2024-05-09T15:53:28.548Z,30.38
2024-05-09T15:55:30.415Z,28.52
2024-05-09T15:57:32.676Z,31.93
2024-05-09T15:59:35.168Z,29.74
2024-05-09T16:01:37.141Z,30.77
2024-05-09T16:03:39.153Z,30.51
2024-05-09T16:05:41.489Z,33.05
2024-05-09T16:07:43.839Z,35.91
2024-05-09T16:09:48.346Z,36.99
2024-05-09T16:11:50.331Z,34.98
2024-05-09T16:13:52.231Z,34.65
2024-05-09T16:15:54.177Z,32.32
2024-05-09T16:17:59.384Z,33.17
2024-05-09T16:20:01.384Z,34.62
2024-05-09T16:22:03.480Z,35.47
2024-05-09T16:24:05.899Z,31.18
2024-05-09T16:26:11.143Z,31.50
2024-05-09T16:28:13.612Z,29.95
2024-05-09T16:30:24.665Z,32.81
2024-05-09T16:32:33.450Z,30.63
2024-05-09T16:34:35.805Z,30.74
2024-05-09T16:36:37.713Z,38.02
2024-05-09T16:38:39.684Z,34.10
2024-05-09T16:40:41.842Z,30.71
2024-05-09T16:42:46.345Z,30.95
2024-05-09T16:44:48.504Z,30.62
2024-05-09T16:46:50.376Z,30.68
2024-05-09T16:48:52.400Z,30.97
2024-05-09T16:50:54.407Z,30.40
2024-05-09T16:52:56.634Z,32.06
2024-05-09T16:54:58.640Z,31.58
2024-05-09T16:57:00.625Z,37.75
2024-05-09T16:59:05.257Z,31.09
2024-05-09T17:01:07.314Z,31.32
2024-05-09T17:03:10.275Z,31.14
2024-05-09T17:05:13.111Z,30.59
2024-05-09T17:07:15.224Z,30.73
2024-05-09T17:09:19.799Z,30.64
2024-05-09T17:11:22.346Z,30.19
2024-05-09T17:13:24.240Z,30.93
2024-05-09T17:15:29.020Z,33.28
2024-05-09T17:17:30.992Z,31.14
2024-05-09T17:19:33.096Z,37.15
2024-05-09T17:21:35.067Z,38.08
2024-05-09T17:23:37.227Z,38.30
2024-05-09T17:25:39.320Z,35.97
2024-05-09T17:27:41.175Z,33.10
2024-05-09T17:29:43.193Z,36.19
2024-05-09T17:31:47.642Z,34.44
2024-05-09T17:33:49.689Z,32.44
2024-05-09T17:35:51.811Z,32.96
2024-05-09T17:37:53.848Z,33.70
2024-05-09T17:39:55.684Z,32.29
2024-05-09T17:41:57.631Z,31.95
2024-05-09T17:43:59.980Z,31.25
2024-05-09T17:46:02.078Z,31.32
2024-05-09T17:48:07.892Z,31.52
2024-05-09T17:50:14.865Z,31.38
2024-05-09T17:52:22.823Z,31.35
2024-05-09T17:54:24.774Z,31.41
2024-05-09T17:56:26.982Z,31.72
2024-05-09T17:58:28.854Z,31.63
2024-05-09T18:00:37.899Z,31.63
2024-05-09T18:02:43.034Z,31.61
2024-05-09T18:04:47.916Z,31.83
2024-05-09T18:06:49.904Z,32.14
2024-05-09T18:08:51.760Z,32.19
2024-05-09T18:10:55.345Z,32.12
2024-05-09T18:12:58.221Z,32.07
2024-05-09T18:15:00.386Z,32.21
2024-05-09T18:17:02.422Z,32.42
2024-05-09T18:19:04.588Z,32.87
2024-05-09T18:21:09.547Z,32.58
2024-05-09T18:23:12.226Z,34.40
2024-05-09T18:25:14.393Z,33.93
2024-05-09T18:27:16.512Z,33.78
2024-05-09T18:29:21.741Z,34.57
2024-05-09T18:31:24.437Z,35.98
2024-05-09T18:33:26.858Z,36.50
2024-05-09T18:35:28.906Z,35.16
2024-05-09T18:37:34.020Z,35.04
2024-05-09T18:39:36.143Z,34.57
2024-05-09T18:41:38.637Z,36.66
2024-05-09T18:43:45.099Z,36.90
2024-05-09T18:45:50.513Z,37.74
2024-05-09T18:47:52.712Z,38.42
2024-05-09T18:49:55.131Z,37.64
2024-05-09T18:51:59.873Z,37.47
2024-05-09T18:54:04.694Z,37.87
2024-05-09T18:56:07.863Z,37.77
2024-05-09T18:58:10.041Z,37.32
2024-05-09T19:00:19.315Z,39.40
2024-05-09T19:02:32.060Z,38.61
2024-05-09T19:04:34.612Z,37.07
2024-05-09T19:06:36.618Z,37.00
2024-05-09T19:08:39.135Z,38.39
2024-05-09T19:10:44.428Z,38.81
2024-05-09T19:12:46.636Z,40.56
2024-05-09T19:14:48.772Z,39.39
2024-05-09T19:16:50.763Z,41.56
2024-05-09T19:18:53.361Z,39.20
2024-05-09T19:20:55.692Z,39.39
2024-05-09T19:22:57.747Z,42.44
2024-05-09T19:24:59.813Z,41.29
2024-05-09T19:27:05.170Z,40.92
2024-05-09T19:29:07.278Z,39.72
2024-05-09T19:31:09.589Z,42.01
2024-05-09T19:33:12.964Z,42.14
2024-05-09T19:35:15.845Z,42.08
2024-05-09T19:37:18.289Z,41.81
2024-05-09T19:39:20.247Z,41.31
2024-05-09T19:41:22.107Z,40.23
2024-05-09T19:43:27.079Z,39.60
2024-05-09T19:45:29.252Z,39.97
2024-05-09T19:47:31.478Z,39.76
2024-05-09T19:49:33.583Z,39.75
2024-05-09T19:51:35.774Z,40.54
2024-05-09T19:53:38.021Z,41.84
2024-05-09T19:55:40.421Z,39.77
2024-05-09T19:57:42.478Z,40.36
2024-05-09T19:59:47.348Z,42.06
2024-05-09T20:01:50.170Z,41.17
2024-05-09T20:03:52.770Z,41.19
2024-05-09T20:05:55.107Z,42.45
2024-05-09T20:07:57.064Z,43.02
2024-05-09T20:09:59.444Z,43.48
2024-05-09T20:12:01.774Z,44.56
2024-05-09T20:14:05.484Z,44.51
2024-05-09T20:16:10.732Z,44.97
2024-05-09T20:18:12.993Z,45.60
2024-05-09T20:20:24.572Z,45.84
2024-05-09T20:22:35.249Z,45.77
2024-05-09T20:24:37.559Z,46.15
2024-05-09T20:26:39.750Z,46.21
2024-05-09T20:28:41.602Z,46.13
2024-05-09T20:30:43.418Z,47.07
2024-05-09T20:32:48.144Z,46.35
2024-05-09T20:34:50.141Z,47.64
2024-05-09T20:36:52.358Z,46.19
2024-05-09T20:38:54.245Z,46.43
2024-05-09T20:40:56.684Z,45.14
2024-05-09T20:42:58.646Z,46.48
2024-05-09T20:45:00.892Z,47.07
2024-05-09T20:47:02.719Z,47.04
2024-05-09T20:49:07.867Z,45.42
2024-05-09T20:51:10.216Z,45.29
2024-05-09T20:53:14.126Z,46.67
2024-05-09T20:55:17.116Z,47.55
2024-05-09T20:57:19.164Z,47.05
2024-05-09T20:59:21.213Z,45.75
2024-05-09T21:01:23.532Z,45.87
2024-05-09T21:03:25.913Z,46.98
2024-05-09T21:05:30.820Z,48.11
2024-05-09T21:07:33.032Z,47.83
2024-05-09T21:09:35.162Z,48.08
2024-05-09T21:11:37.154Z,48.17
2024-05-09T21:13:39.364Z,48.39
2024-05-09T21:15:41.837Z,49.17
2024-05-09T21:17:44.007Z,49.13
2024-05-09T21:19:46.100Z,49.65
2024-05-09T21:21:52.452Z,49.34
2024-05-09T21:23:55.439Z,50.03
2024-05-09T21:25:57.387Z,50.82
2024-05-09T21:27:59.484Z,48.96
2024-05-09T21:30:01.463Z,47.45
2024-05-09T21:32:03.439Z,47.01
2024-05-09T21:34:05.608Z,45.94
2024-05-09T21:36:09.249Z,45.49
2024-05-09T21:38:14.203Z,45.40
2024-05-09T21:40:26.659Z,45.80
2024-05-09T21:42:35.123Z,45.88
2024-05-09T21:44:37.390Z,46.24
2024-05-09T21:46:39.436Z,45.83
2024-05-09T21:48:41.559Z,45.33
2024-05-09T21:50:43.454Z,45.86
2024-05-09T21:52:45.237Z,45.05
2024-05-09T21:54:49.945Z,45.87
2024-05-09T21:56:51.789Z,45.16
2024-05-09T21:58:54.204Z,45.21
2024-05-09T22:00:56.178Z,46.10
2024-05-09T22:02:58.115Z,44.84
2024-05-09T22:05:00.094Z,46.08
2024-05-09T22:07:02.210Z,45.63
2024-05-09T22:09:04.409Z,47.07
2024-05-09T22:11:09.317Z,48.05
2024-05-09T22:13:11.488Z,48.95
2024-05-09T22:15:13.521Z,49.70
2024-05-09T22:17:15.469Z,50.00
2024-05-09T22:19:17.373Z,50.07
2024-05-09T22:21:22.523Z,50.74
2024-05-09T22:23:24.599Z,50.77
2024-05-09T22:25:29.575Z,50.94
2024-05-09T22:27:34.667Z,50.81
2024-05-09T22:29:36.651Z,50.49
2024-05-09T22:31:38.399Z,51.44
2024-05-09T22:33:41.985Z,52.01
2024-05-09T22:35:45.192Z,52.03
2024-05-09T22:37:48.575Z,51.99
2024-05-09T22:39:51.843Z,52.54
2024-05-09T22:41:53.738Z,52.76
2024-05-09T22:43:58.247Z,53.11
2024-05-09T22:46:00.223Z,53.48
2024-05-09T22:48:02.322Z,53.80
2024-05-09T22:50:10.790Z,53.88
2024-05-09T22:52:18.074Z,53.90
2024-05-09T22:54:19.897Z,53.66
2024-05-09T22:56:27.370Z,53.53
2024-05-09T22:58:29.424Z,53.75
2024-05-09T23:00:34.224Z,53.34
2024-05-09T23:02:36.808Z,53.08
2024-05-09T23:04:38.759Z,53.83
2024-05-09T23:06:40.825Z,54.08
2024-05-09T23:08:42.691Z,52.98
2024-05-09T23:10:44.699Z,52.16
2024-05-09T23:12:46.578Z,52.81
2024-05-09T23:14:48.357Z,53.29
2024-05-09T23:16:52.871Z,52.83
2024-05-09T23:18:54.784Z,52.05
2024-05-09T23:20:56.672Z,52.25
2024-05-09T23:22:58.837Z,53.48
2024-05-09T23:25:00.869Z,53.18
2024-05-09T23:27:02.871Z,53.27
2024-05-09T23:29:04.610Z,53.75
2024-05-09T23:31:06.506Z,53.60
2024-05-09T23:33:13.054Z,54.17
2024-05-09T23:35:15.661Z,53.86
2024-05-09T23:37:17.541Z,53.88
2024-05-09T23:39:19.479Z,53.89
2024-05-09T23:41:21.360Z,54.47
2024-05-09T23:43:23.322Z,54.11
2024-05-09T23:45:25.171Z,53.53
2024-05-09T23:47:27.060Z,54.21
2024-05-09T23:49:32.116Z,52.53
2024-05-09T23:51:34.123Z,50.55
2024-05-09T23:53:35.981Z,51.78
2024-05-09T23:55:41.070Z,50.32
2024-05-09T23:57:43.034Z,51.70
2024-05-09T23:59:44.963Z,51.62
